sensor_id;sensor_type;location;lat;lon;timestamp;P1;durP1;ratioP1;P2;durP2;ratioP2
13708;SDS011;54933;51.908;7.730;2022-10-18T00:00:35;2.13;;;1.20;;
13708;SDS011;54933;51.908;7.730;2022-10-18T00:03:01;1.70;;;1.10;;
13708;SDS011;54933;51.908;7.730;2022-10-18T00:05:26;1.57;;;1.20;;
13708;SDS011;54933;51.908;7.730;2022-10-18T00:07:51;1.37;;;1.27;;
13708;SDS011;54933;51.908;7.730;2022-10-18T00:10:16;1.10;;;1.10;;
13708;SDS011;54933;51.908;7.730;2022-10-18T00:12:42;1.00;;;1.00;;
13708;SDS011;54933;51.908;7.730;2022-10-18T00:15:07;2.83;;;1.50;;
13708;SDS011;54933;51.908;7.730;2022-10-18T00:17:34;1.43;;;1.10;;
13708;SDS011;54933;51.908;7.730;2022-10-18T00:20:01;1.33;;;1.20;;
13708;SDS011;54933;51.908;7.730;2022-10-18T00:22:26;1.37;;;1.07;;
13708;SDS011;54933;51.908;7.730;2022-10-18T00:24:52;1.00;;;1.00;;
13708;SDS011;54933;51.908;7.730;2022-10-18T00:27:17;1.10;;;1.10;;
13708;SDS011;54933;51.908;7.730;2022-10-18T00:29:43;1.37;;;1.10;;
13708;SDS011;54933;51.908;7.730;2022-10-18T00:32:08;1.13;;;1.13;;
13708;SDS011;54933;51.908;7.730;2022-10-18T00:34:36;1.03;;;1.03;;
13708;SDS011;54933;51.908;7.730;2022-10-18T00:37:03;1.20;;;1.20;;
13708;SDS011;54933;51.908;7.730;2022-10-18T00:39:28;1.33;;;1.07;;
13708;SDS011;54933;51.908;7.730;2022-10-18T00:41:53;1.90;;;1.10;;
13708;SDS011;54933;51.908;7.730;2022-10-18T00:46:50;1.20;;;1.10;;
13708;SDS011;54933;51.908;7.730;2022-10-18T00:49:18;1.40;;;1.23;;
13708;SDS011;54933;51.908;7.730;2022-10-18T00:51:56;1.53;;;1.13;;
13708;SDS011;54933;51.908;7.730;2022-10-18T00:54:24;2.20;;;1.30;;
13708;SDS011;54933;51.908;7.730;2022-10-18T00:56:52;0.83;;;0.83;;
13708;SDS011;54933;51.908;7.730;2022-10-18T00:59:17;1.13;;;0.97;;
13708;SDS011;54933;51.908;7.730;2022-10-18T01:01:44;1.90;;;1.37;;
13708;SDS011;54933;51.908;7.730;2022-10-18T01:04:10;1.10;;;1.00;;
13708;SDS011;54933;51.908;7.730;2022-10-18T01:06:39;1.03;;;1.00;;
13708;SDS011;54933;51.908;7.730;2022-10-18T01:09:17;1.10;;;1.10;;
13708;SDS011;54933;51.908;7.730;2022-10-18T01:11:55;1.10;;;1.10;;
13708;SDS011;54933;51.908;7.730;2022-10-18T01:14:33;2.03;;;1.50;;
13708;SDS011;54933;51.908;7.730;2022-10-18T01:17:21;0.90;;;0.90;;
13708;SDS011;54933;51.908;7.730;2022-10-18T01:22:38;1.40;;;1.27;;
13708;SDS011;54933;51.908;7.730;2022-10-18T01:33:16;1.10;;;1.10;;
13708;SDS011;54933;51.908;7.730;2022-10-18T01:35:49;1.67;;;1.13;;
13708;SDS011;54933;51.908;7.730;2022-10-18T01:38:18;1.00;;;1.00;;
13708;SDS011;54933;51.908;7.730;2022-10-18T01:40:46;1.40;;;1.30;;
13708;SDS011;54933;51.908;7.730;2022-10-18T01:43:14;0.90;;;0.90;;
13708;SDS011;54933;51.908;7.730;2022-10-18T01:45:41;1.23;;;1.10;;
13708;SDS011;54933;51.908;7.730;2022-10-18T01:48:07;1.10;;;1.10;;
13708;SDS011;54933;51.908;7.730;2022-10-18T01:50:34;1.00;;;1.00;;
13708;SDS011;54933;51.908;7.730;2022-10-18T01:53:00;0.83;;;0.83;;
13708;SDS011;54933;51.908;7.730;2022-10-18T01:55:39;1.40;;;0.93;;
13708;SDS011;54933;51.908;7.730;2022-10-18T01:58:17;1.50;;;1.40;;
13708;SDS011;54933;51.908;7.730;2022-10-18T02:00:47;0.97;;;0.97;;
13708;SDS011;54933;51.908;7.730;2022-10-18T02:03:24;0.93;;;0.93;;
13708;SDS011;54933;51.908;7.730;2022-10-18T02:08:32;0.90;;;0.90;;
13708;SDS011;54933;51.908;7.730;2022-10-18T02:11:08;2.83;;;1.17;;
13708;SDS011;54933;51.908;7.730;2022-10-18T02:16:40;1.00;;;1.00;;
13708;SDS011;54933;51.908;7.730;2022-10-18T02:19:17;1.03;;;1.03;;
13708;SDS011;54933;51.908;7.730;2022-10-18T02:21:49;1.83;;;0.93;;
13708;SDS011;54933;51.908;7.730;2022-10-18T02:24:17;1.20;;;1.20;;
13708;SDS011;54933;51.908;7.730;2022-10-18T02:26:44;1.00;;;1.00;;
13708;SDS011;54933;51.908;7.730;2022-10-18T02:29:10;1.10;;;1.00;;
13708;SDS011;54933;51.908;7.730;2022-10-18T02:31:41;2.13;;;0.97;;
13708;SDS011;54933;51.908;7.730;2022-10-18T02:34:22;1.00;;;1.00;;
13708;SDS011;54933;51.908;7.730;2022-10-18T02:36:53;1.10;;;1.10;;
13708;SDS011;54933;51.908;7.730;2022-10-18T02:39:29;0.90;;;0.90;;
13708;SDS011;54933;51.908;7.730;2022-10-18T02:41:57;2.13;;;1.10;;
13708;SDS011;54933;51.908;7.730;2022-10-18T02:44:23;1.20;;;1.10;;
13708;SDS011;54933;51.908;7.730;2022-10-18T02:46:50;1.23;;;1.17;;
13708;SDS011;54933;51.908;7.730;2022-10-18T02:49:16;0.90;;;0.90;;
13708;SDS011;54933;51.908;7.730;2022-10-18T02:51:41;1.80;;;0.90;;
13708;SDS011;54933;51.908;7.730;2022-10-18T02:54:07;0.83;;;0.83;;
13708;SDS011;54933;51.908;7.730;2022-10-18T02:56:32;1.10;;;1.10;;
13708;SDS011;54933;51.908;7.730;2022-10-18T02:58:58;0.80;;;0.80;;
13708;SDS011;54933;51.908;7.730;2022-10-18T03:01:23;1.63;;;0.87;;
13708;SDS011;54933;51.908;7.730;2022-10-18T03:03:49;0.93;;;0.93;;
13708;SDS011;54933;51.908;7.730;2022-10-18T03:06:14;1.10;;;1.10;;
13708;SDS011;54933;51.908;7.730;2022-10-18T03:08:39;1.10;;;1.00;;
13708;SDS011;54933;51.908;7.730;2022-10-18T03:11:05;0.93;;;0.93;;
13708;SDS011;54933;51.908;7.730;2022-10-18T03:13:30;1.53;;;1.20;;
13708;SDS011;54933;51.908;7.730;2022-10-18T03:15:56;1.23;;;1.13;;
13708;SDS011;54933;51.908;7.730;2022-10-18T03:18:21;1.00;;;0.90;;
13708;SDS011;54933;51.908;7.730;2022-10-18T03:20:46;0.80;;;0.80;;
13708;SDS011;54933;51.908;7.730;2022-10-18T03:23:11;1.90;;;1.10;;
13708;SDS011;54933;51.908;7.730;2022-10-18T03:25:37;3.20;;;1.00;;
13708;SDS011;54933;51.908;7.730;2022-10-18T03:28:02;0.90;;;0.90;;
13708;SDS011;54933;51.908;7.730;2022-10-18T03:30:27;1.27;;;1.27;;
13708;SDS011;54933;51.908;7.730;2022-10-18T03:32:53;2.10;;;0.90;;
13708;SDS011;54933;51.908;7.730;2022-10-18T03:35:18;0.90;;;0.90;;
13708;SDS011;54933;51.908;7.730;2022-10-18T03:37:44;0.90;;;0.90;;
13708;SDS011;54933;51.908;7.730;2022-10-18T03:40:09;1.30;;;1.20;;
13708;SDS011;54933;51.908;7.730;2022-10-18T03:42:35;0.80;;;0.80;;
13708;SDS011;54933;51.908;7.730;2022-10-18T03:45:00;2.07;;;1.00;;
13708;SDS011;54933;51.908;7.730;2022-10-18T03:47:25;0.90;;;0.90;;
13708;SDS011;54933;51.908;7.730;2022-10-18T03:49:51;0.87;;;0.87;;
13708;SDS011;54933;51.908;7.730;2022-10-18T03:52:16;0.87;;;0.87;;
13708;SDS011;54933;51.908;7.730;2022-10-18T03:54:41;0.90;;;0.90;;
13708;SDS011;54933;51.908;7.730;2022-10-18T03:57:06;1.60;;;0.90;;
13708;SDS011;54933;51.908;7.730;2022-10-18T03:59:32;0.90;;;0.90;;
13708;SDS011;54933;51.908;7.730;2022-10-18T04:01:57;1.00;;;1.00;;
13708;SDS011;54933;51.908;7.730;2022-10-18T04:04:22;0.90;;;0.90;;
13708;SDS011;54933;51.908;7.730;2022-10-18T04:06:47;1.07;;;0.90;;
13708;SDS011;54933;51.908;7.730;2022-10-18T04:09:13;0.80;;;0.80;;
13708;SDS011;54933;51.908;7.730;2022-10-18T04:11:38;1.23;;;1.13;;
13708;SDS011;54933;51.908;7.730;2022-10-18T04:14:04;0.83;;;0.83;;
13708;SDS011;54933;51.908;7.730;2022-10-18T04:16:29;0.90;;;0.90;;
13708;SDS011;54933;51.908;7.730;2022-10-18T04:18:54;1.20;;;1.10;;
13708;SDS011;54933;51.908;7.730;2022-10-18T04:21:20;12.17;;;1.97;;
13708;SDS011;54933;51.908;7.730;2022-10-18T04:23:48;4.70;;;1.70;;
13708;SDS011;54933;51.908;7.730;2022-10-18T04:26:14;2.67;;;1.50;;
13708;SDS011;54933;51.908;7.730;2022-10-18T04:28:43;3.73;;;1.73;;
13708;SDS011;54933;51.908;7.730;2022-10-18T04:31:09;2.43;;;1.67;;
13708;SDS011;54933;51.908;7.730;2022-10-18T04:33:35;2.57;;;1.77;;
13708;SDS011;54933;51.908;7.730;2022-10-18T04:36:00;8.73;;;1.43;;
13708;SDS011;54933;51.908;7.730;2022-10-18T04:38:26;7.57;;;1.80;;
13708;SDS011;54933;51.908;7.730;2022-10-18T04:40:51;2.10;;;1.60;;
13708;SDS011;54933;51.908;7.730;2022-10-18T04:43:17;1.63;;;1.30;;
13708;SDS011;54933;51.908;7.730;2022-10-18T04:45:45;1.40;;;1.23;;
13708;SDS011;54933;51.908;7.730;2022-10-18T04:48:10;1.47;;;1.37;;
13708;SDS011;54933;51.908;7.730;2022-10-18T04:50:36;2.40;;;1.30;;
13708;SDS011;54933;51.908;7.730;2022-10-18T04:53:01;2.63;;;1.43;;
13708;SDS011;54933;51.908;7.730;2022-10-18T04:55:27;5.33;;;1.70;;
13708;SDS011;54933;51.908;7.730;2022-10-18T04:57:52;1.83;;;1.60;;
13708;SDS011;54933;51.908;7.730;2022-10-18T05:00:18;1.30;;;1.20;;
13708;SDS011;54933;51.908;7.730;2022-10-18T05:02:43;3.03;;;1.10;;
13708;SDS011;54933;51.908;7.730;2022-10-18T05:05:08;1.30;;;1.20;;
13708;SDS011;54933;51.908;7.730;2022-10-18T05:07:33;2.77;;;2.20;;
13708;SDS011;54933;51.908;7.730;2022-10-18T05:09:59;2.07;;;1.77;;
13708;SDS011;54933;51.908;7.730;2022-10-18T05:12:24;2.00;;;1.80;;
13708;SDS011;54933;51.908;7.730;2022-10-18T05:14:49;3.10;;;1.90;;
13708;SDS011;54933;51.908;7.730;2022-10-18T05:17:14;3.00;;;1.90;;
13708;SDS011;54933;51.908;7.730;2022-10-18T05:19:40;1.50;;;1.40;;
13708;SDS011;54933;51.908;7.730;2022-10-18T05:22:05;1.60;;;1.50;;
13708;SDS011;54933;51.908;7.730;2022-10-18T05:24:30;2.53;;;1.60;;
13708;SDS011;54933;51.908;7.730;2022-10-18T05:26:56;1.80;;;1.70;;
13708;SDS011;54933;51.908;7.730;2022-10-18T05:29:21;2.30;;;1.60;;
13708;SDS011;54933;51.908;7.730;2022-10-18T05:31:47;1.43;;;1.33;;
13708;SDS011;54933;51.908;7.730;2022-10-18T05:34:13;1.37;;;1.27;;
13708;SDS011;54933;51.908;7.730;2022-10-18T05:36:38;1.50;;;1.40;;
13708;SDS011;54933;51.908;7.730;2022-10-18T05:39:04;3.03;;;1.37;;
13708;SDS011;54933;51.908;7.730;2022-10-18T05:41:29;5.33;;;1.50;;
13708;SDS011;54933;51.908;7.730;2022-10-18T05:43:55;3.60;;;1.40;;
13708;SDS011;54933;51.908;7.730;2022-10-18T05:46:20;2.53;;;1.50;;
13708;SDS011;54933;51.908;7.730;2022-10-18T05:48:48;4.03;;;1.30;;
13708;SDS011;54933;51.908;7.730;2022-10-18T05:51:15;2.53;;;1.40;;
13708;SDS011;54933;51.908;7.730;2022-10-18T05:53:40;4.93;;;1.40;;
13708;SDS011;54933;51.908;7.730;2022-10-18T05:56:06;1.30;;;1.27;;
13708;SDS011;54933;51.908;7.730;2022-10-18T05:58:32;2.63;;;1.50;;
13708;SDS011;54933;51.908;7.730;2022-10-18T06:00:58;2.53;;;1.10;;
13708;SDS011;54933;51.908;7.730;2022-10-18T06:03:27;1.63;;;1.17;;
13708;SDS011;54933;51.908;7.730;2022-10-18T06:05:58;1.50;;;1.13;;
13708;SDS011;54933;51.908;7.730;2022-10-18T06:08:27;4.07;;;1.30;;
13708;SDS011;54933;51.908;7.730;2022-10-18T06:10:52;1.43;;;1.10;;
13708;SDS011;54933;51.908;7.730;2022-10-18T06:13:18;1.43;;;1.33;;
13708;SDS011;54933;51.908;7.730;2022-10-18T06:15:43;1.40;;;1.30;;
13708;SDS011;54933;51.908;7.730;2022-10-18T06:18:08;4.53;;;1.37;;
13708;SDS011;54933;51.908;7.730;2022-10-18T06:20:33;4.90;;;1.23;;
13708;SDS011;54933;51.908;7.730;2022-10-18T06:22:59;1.77;;;1.03;;
13708;SDS011;54933;51.908;7.730;2022-10-18T06:25:24;1.00;;;1.00;;
13708;SDS011;54933;51.908;7.730;2022-10-18T06:27:49;1.23;;;1.07;;
13708;SDS011;54933;51.908;7.730;2022-10-18T06:30:15;1.20;;;1.20;;
13708;SDS011;54933;51.908;7.730;2022-10-18T06:32:40;2.20;;;1.20;;
13708;SDS011;54933;51.908;7.730;2022-10-18T06:35:05;1.17;;;1.03;;
13708;SDS011;54933;51.908;7.730;2022-10-18T06:37:31;1.00;;;1.00;;
13708;SDS011;54933;51.908;7.730;2022-10-18T06:39:56;1.73;;;0.97;;
13708;SDS011;54933;51.908;7.730;2022-10-18T06:42:21;1.20;;;1.10;;
13708;SDS011;54933;51.908;7.730;2022-10-18T06:44:47;2.30;;;1.07;;
13708;SDS011;54933;51.908;7.730;2022-10-18T06:47:12;1.07;;;0.97;;
13708;SDS011;54933;51.908;7.730;2022-10-18T06:49:37;1.07;;;1.00;;
13708;SDS011;54933;51.908;7.730;2022-10-18T06:52:03;0.80;;;0.80;;
13708;SDS011;54933;51.908;7.730;2022-10-18T06:54:28;0.97;;;0.97;;
13708;SDS011;54933;51.908;7.730;2022-10-18T06:56:56;1.33;;;1.20;;
13708;SDS011;54933;51.908;7.730;2022-10-18T06:59:22;1.63;;;1.33;;
13708;SDS011;54933;51.908;7.730;2022-10-18T07:01:47;1.10;;;1.00;;
13708;SDS011;54933;51.908;7.730;2022-10-18T07:04:13;1.17;;;1.07;;
13708;SDS011;54933;51.908;7.730;2022-10-18T07:06:38;0.80;;;0.80;;
13708;SDS011;54933;51.908;7.730;2022-10-18T07:09:03;1.60;;;0.90;;
13708;SDS011;54933;51.908;7.730;2022-10-18T07:11:28;0.93;;;0.93;;
13708;SDS011;54933;51.908;7.730;2022-10-18T07:13:54;1.00;;;1.00;;
13708;SDS011;54933;51.908;7.730;2022-10-18T07:16:26;1.17;;;1.00;;
13708;SDS011;54933;51.908;7.730;2022-10-18T07:18:52;0.87;;;0.70;;
13708;SDS011;54933;51.908;7.730;2022-10-18T07:21:18;1.13;;;1.00;;
13708;SDS011;54933;51.908;7.730;2022-10-18T07:23:45;0.97;;;0.97;;
13708;SDS011;54933;51.908;7.730;2022-10-18T07:26:13;0.90;;;0.90;;
13708;SDS011;54933;51.908;7.730;2022-10-18T07:28:43;1.20;;;1.00;;
13708;SDS011;54933;51.908;7.730;2022-10-18T07:31:11;1.20;;;1.10;;
13708;SDS011;54933;51.908;7.730;2022-10-18T07:33:37;1.00;;;0.93;;
13708;SDS011;54933;51.908;7.730;2022-10-18T07:36:04;0.90;;;0.90;;
13708;SDS011;54933;51.908;7.730;2022-10-18T07:38:31;1.03;;;1.03;;
13708;SDS011;54933;51.908;7.730;2022-10-18T07:40:57;0.80;;;0.80;;
13708;SDS011;54933;51.908;7.730;2022-10-18T07:43:27;1.03;;;0.90;;
13708;SDS011;54933;51.908;7.730;2022-10-18T07:45:53;1.23;;;1.13;;
13708;SDS011;54933;51.908;7.730;2022-10-18T07:48:20;0.90;;;0.90;;
13708;SDS011;54933;51.908;7.730;2022-10-18T07:50:46;1.13;;;1.07;;
13708;SDS011;54933;51.908;7.730;2022-10-18T07:53:11;0.93;;;0.90;;
13708;SDS011;54933;51.908;7.730;2022-10-18T07:55:37;1.63;;;0.93;;
13708;SDS011;54933;51.908;7.730;2022-10-18T07:58:02;1.20;;;1.10;;
13708;SDS011;54933;51.908;7.730;2022-10-18T08:00:27;1.03;;;1.03;;
13708;SDS011;54933;51.908;7.730;2022-10-18T08:02:56;1.30;;;0.97;;
13708;SDS011;54933;51.908;7.730;2022-10-18T08:05:22;1.23;;;0.90;;
13708;SDS011;54933;51.908;7.730;2022-10-18T08:07:47;1.13;;;1.13;;
13708;SDS011;54933;51.908;7.730;2022-10-18T08:10:12;1.40;;;1.40;;
13708;SDS011;54933;51.908;7.730;2022-10-18T08:12:37;1.00;;;1.00;;
13708;SDS011;54933;51.908;7.730;2022-10-18T08:15:03;1.00;;;1.00;;
13708;SDS011;54933;51.908;7.730;2022-10-18T08:17:28;1.63;;;1.03;;
13708;SDS011;54933;51.908;7.730;2022-10-18T08:19:54;1.20;;;1.20;;
13708;SDS011;54933;51.908;7.730;2022-10-18T08:22:19;3.03;;;1.13;;
13708;SDS011;54933;51.908;7.730;2022-10-18T08:24:46;1.20;;;1.20;;
13708;SDS011;54933;51.908;7.730;2022-10-18T08:27:12;1.00;;;1.00;;
13708;SDS011;54933;51.908;7.730;2022-10-18T08:29:37;1.03;;;1.03;;
13708;SDS011;54933;51.908;7.730;2022-10-18T08:32:02;1.47;;;1.37;;
13708;SDS011;54933;51.908;7.730;2022-10-18T08:34:28;1.50;;;1.40;;
13708;SDS011;54933;51.908;7.730;2022-10-18T08:36:53;1.50;;;1.40;;
13708;SDS011;54933;51.908;7.730;2022-10-18T08:39:18;1.13;;;1.13;;
13708;SDS011;54933;51.908;7.730;2022-10-18T08:44:25;1.00;;;1.00;;
13708;SDS011;54933;51.908;7.730;2022-10-18T08:46:55;1.67;;;1.40;;
13708;SDS011;54933;51.908;7.730;2022-10-18T08:49:41;1.83;;;1.47;;
13708;SDS011;54933;51.908;7.730;2022-10-18T08:52:18;1.13;;;1.13;;
13708;SDS011;54933;51.908;7.730;2022-10-18T08:57:39;3.10;;;1.87;;
13708;SDS011;54933;51.908;7.730;2022-10-18T09:05:53;1.80;;;1.70;;
13708;SDS011;54933;51.908;7.730;2022-10-18T09:17:24;1.23;;;1.20;;
13708;SDS011;54933;51.908;7.730;2022-10-18T09:20:18;1.40;;;1.30;;
13708;SDS011;54933;51.908;7.730;2022-10-18T09:22:49;1.47;;;1.37;;
13708;SDS011;54933;51.908;7.730;2022-10-18T09:25:24;1.50;;;1.40;;
13708;SDS011;54933;51.908;7.730;2022-10-18T09:28:03;1.83;;;1.43;;
13708;SDS011;54933;51.908;7.730;2022-10-18T09:30:40;1.63;;;1.53;;
13708;SDS011;54933;51.908;7.730;2022-10-18T09:35:54;1.87;;;1.70;;
13708;SDS011;54933;51.908;7.730;2022-10-18T09:38:30;1.70;;;1.60;;
13708;SDS011;54933;51.908;7.730;2022-10-18T09:41:11;1.57;;;1.47;;
13708;SDS011;54933;51.908;7.730;2022-10-18T09:44:02;1.67;;;1.57;;
13708;SDS011;54933;51.908;7.730;2022-10-18T09:46:47;1.50;;;1.40;;
13708;SDS011;54933;51.908;7.730;2022-10-18T09:49:17;1.73;;;1.63;;
13708;SDS011;54933;51.908;7.730;2022-10-18T09:51:46;1.67;;;1.57;;
13708;SDS011;54933;51.908;7.730;2022-10-18T09:54:20;2.03;;;1.53;;
13708;SDS011;54933;51.908;7.730;2022-10-18T09:56:56;1.77;;;1.67;;
13708;SDS011;54933;51.908;7.730;2022-10-18T09:59:36;1.60;;;1.50;;
13708;SDS011;54933;51.908;7.730;2022-10-18T10:02:05;1.70;;;1.60;;
13708;SDS011;54933;51.908;7.730;2022-10-18T10:04:33;1.80;;;1.70;;
13708;SDS011;54933;51.908;7.730;2022-10-18T10:06:59;1.70;;;1.60;;
13708;SDS011;54933;51.908;7.730;2022-10-18T10:09:29;1.90;;;1.80;;
13708;SDS011;54933;51.908;7.730;2022-10-18T10:12:00;3.17;;;1.90;;
13708;SDS011;54933;51.908;7.730;2022-10-18T10:14:26;1.83;;;1.73;;
13708;SDS011;54933;51.908;7.730;2022-10-18T10:19:34;2.20;;;2.07;;
13708;SDS011;54933;51.908;7.730;2022-10-18T10:22:11;1.60;;;1.50;;
13708;SDS011;54933;51.908;7.730;2022-10-18T10:27:18;2.13;;;2.00;;
13708;SDS011;54933;51.908;7.730;2022-10-18T10:29:49;1.80;;;1.70;;
13708;SDS011;54933;51.908;7.730;2022-10-18T10:32:20;1.60;;;1.50;;
13708;SDS011;54933;51.908;7.730;2022-10-18T10:34:46;2.10;;;1.90;;
13708;SDS011;54933;51.908;7.730;2022-10-18T10:37:29;1.80;;;1.70;;
13708;SDS011;54933;51.908;7.730;2022-10-18T10:40:12;2.00;;;1.90;;
13708;SDS011;54933;51.908;7.730;2022-10-18T10:42:50;2.23;;;2.03;;
13708;SDS011;54933;51.908;7.730;2022-10-18T10:45:19;1.87;;;1.77;;
13708;SDS011;54933;51.908;7.730;2022-10-18T10:47:46;2.47;;;1.80;;
13708;SDS011;54933;51.908;7.730;2022-10-18T10:50:20;1.83;;;1.73;;
13708;SDS011;54933;51.908;7.730;2022-10-18T10:52:50;1.73;;;1.63;;
13708;SDS011;54933;51.908;7.730;2022-10-18T10:55:18;1.53;;;1.47;;
13708;SDS011;54933;51.908;7.730;2022-10-18T10:57:47;2.13;;;2.03;;
13708;SDS011;54933;51.908;7.730;2022-10-18T11:03:19;2.10;;;2.00;;
13708;SDS011;54933;51.908;7.730;2022-10-18T11:05:51;2.43;;;1.90;;
13708;SDS011;54933;51.908;7.730;2022-10-18T11:08:23;2.13;;;1.93;;
13708;SDS011;54933;51.908;7.730;2022-10-18T11:15:59;2.47;;;1.77;;
13708;SDS011;54933;51.908;7.730;2022-10-18T11:18:35;1.67;;;1.60;;
13708;SDS011;54933;51.908;7.730;2022-10-18T11:21:06;1.90;;;1.80;;
13708;SDS011;54933;51.908;7.730;2022-10-18T11:23:39;1.80;;;1.70;;
13708;SDS011;54933;51.908;7.730;2022-10-18T11:28:41;1.90;;;1.80;;
13708;SDS011;54933;51.908;7.730;2022-10-18T11:31:28;1.63;;;1.53;;
13708;SDS011;54933;51.908;7.730;2022-10-18T11:39:49;2.17;;;2.07;;
13708;SDS011;54933;51.908;7.730;2022-10-18T11:42:32;2.00;;;1.90;;
13708;SDS011;54933;51.908;7.730;2022-10-18T11:51:09;2.27;;;1.60;;
13708;SDS011;54933;51.908;7.730;2022-10-18T11:53:47;2.70;;;2.50;;
13708;SDS011;54933;51.908;7.730;2022-10-18T11:59:18;2.50;;;1.90;;
13708;SDS011;54933;51.908;7.730;2022-10-18T12:04:41;2.00;;;1.80;;
13708;SDS011;54933;51.908;7.730;2022-10-18T12:07:12;2.00;;;1.90;;
13708;SDS011;54933;51.908;7.730;2022-10-18T12:09:42;2.57;;;2.00;;
13708;SDS011;54933;51.908;7.730;2022-10-18T12:14:48;2.83;;;1.83;;
13708;SDS011;54933;51.908;7.730;2022-10-18T12:19:54;2.00;;;1.90;;
13708;SDS011;54933;51.908;7.730;2022-10-18T12:22:25;1.90;;;1.40;;
13708;SDS011;54933;51.908;7.730;2022-10-18T12:24:56;2.00;;;1.90;;
13708;SDS011;54933;51.908;7.730;2022-10-18T12:27:23;2.87;;;2.27;;
13708;SDS011;54933;51.908;7.730;2022-10-18T12:30:02;1.90;;;1.77;;
13708;SDS011;54933;51.908;7.730;2022-10-18T12:32:37;1.80;;;1.70;;
13708;SDS011;54933;51.908;7.730;2022-10-18T12:35:05;1.53;;;1.43;;
13708;SDS011;54933;51.908;7.730;2022-10-18T12:37:59;3.13;;;2.07;;
13708;SDS011;54933;51.908;7.730;2022-10-18T12:41:04;2.53;;;2.20;;
13708;SDS011;54933;51.908;7.730;2022-10-18T12:45:58;1.70;;;1.60;;
13708;SDS011;54933;51.908;7.730;2022-10-18T12:48:27;1.90;;;1.73;;
13708;SDS011;54933;51.908;7.730;2022-10-18T12:53:44;1.80;;;1.70;;
13708;SDS011;54933;51.908;7.730;2022-10-18T12:58:52;2.67;;;1.90;;
13708;SDS011;54933;51.908;7.730;2022-10-18T13:09:36;1.70;;;1.60;;
13708;SDS011;54933;51.908;7.730;2022-10-18T13:14:36;1.83;;;1.73;;
13708;SDS011;54933;51.908;7.730;2022-10-18T13:17:05;1.80;;;1.70;;
13708;SDS011;54933;51.908;7.730;2022-10-18T13:22:51;1.83;;;1.73;;
13708;SDS011;54933;51.908;7.730;2022-10-18T13:25:35;1.73;;;1.63;;
13708;SDS011;54933;51.908;7.730;2022-10-18T13:28:26;4.13;;;1.80;;
13708;SDS011;54933;51.908;7.730;2022-10-18T13:33:48;2.03;;;1.77;;
13708;SDS011;54933;51.908;7.730;2022-10-18T13:36:18;1.33;;;1.33;;
13708;SDS011;54933;51.908;7.730;2022-10-18T13:38:57;1.73;;;1.63;;
13708;SDS011;54933;51.908;7.730;2022-10-18T13:41:32;1.93;;;1.60;;
13708;SDS011;54933;51.908;7.730;2022-10-18T13:44:26;2.83;;;1.83;;
13708;SDS011;54933;51.908;7.730;2022-10-18T13:52:34;1.67;;;1.57;;
13708;SDS011;54933;51.908;7.730;2022-10-18T13:58:29;1.70;;;1.50;;
13708;SDS011;54933;51.908;7.730;2022-10-18T14:06:42;1.77;;;1.67;;
13708;SDS011;54933;51.908;7.730;2022-10-18T14:09:17;2.20;;;1.70;;
13708;SDS011;54933;51.908;7.730;2022-10-18T14:11:47;1.47;;;1.37;;
13708;SDS011;54933;51.908;7.730;2022-10-18T14:17:04;1.90;;;1.63;;
13708;SDS011;54933;51.908;7.730;2022-10-18T14:19:39;1.70;;;1.60;;
13708;SDS011;54933;51.908;7.730;2022-10-18T14:22:21;1.87;;;1.77;;
13708;SDS011;54933;51.908;7.730;2022-10-18T14:24:50;1.70;;;1.30;;
13708;SDS011;54933;51.908;7.730;2022-10-18T14:29:45;1.77;;;1.33;;
13708;SDS011;54933;51.908;7.730;2022-10-18T14:32:30;1.43;;;1.37;;
13708;SDS011;54933;51.908;7.730;2022-10-18T14:34:56;1.70;;;1.60;;
13708;SDS011;54933;51.908;7.730;2022-10-18T14:37:26;1.80;;;1.70;;
13708;SDS011;54933;51.908;7.730;2022-10-18T14:39:54;1.47;;;1.37;;
13708;SDS011;54933;51.908;7.730;2022-10-18T14:42:20;1.97;;;1.80;;
13708;SDS011;54933;51.908;7.730;2022-10-18T14:44:47;1.83;;;1.73;;
13708;SDS011;54933;51.908;7.730;2022-10-18T14:47:15;1.70;;;1.60;;
13708;SDS011;54933;51.908;7.730;2022-10-18T14:49:44;1.53;;;1.37;;
13708;SDS011;54933;51.908;7.730;2022-10-18T14:52:17;1.50;;;1.40;;
13708;SDS011;54933;51.908;7.730;2022-10-18T14:54:44;1.30;;;1.20;;
13708;SDS011;54933;51.908;7.730;2022-10-18T14:57:24;1.33;;;1.27;;
13708;SDS011;54933;51.908;7.730;2022-10-18T14:59:53;3.97;;;1.97;;
13708;SDS011;54933;51.908;7.730;2022-10-18T15:02:23;1.60;;;1.50;;
13708;SDS011;54933;51.908;7.730;2022-10-18T15:05:08;2.53;;;1.60;;
13708;SDS011;54933;51.908;7.730;2022-10-18T15:07:41;2.70;;;1.30;;
13708;SDS011;54933;51.908;7.730;2022-10-18T15:10:09;6.20;;;1.70;;
13708;SDS011;54933;51.908;7.730;2022-10-18T15:12:41;5.33;;;1.50;;
13708;SDS011;54933;51.908;7.730;2022-10-18T15:15:16;5.97;;;1.90;;
13708;SDS011;54933;51.908;7.730;2022-10-18T15:17:44;4.03;;;1.60;;
13708;SDS011;54933;51.908;7.730;2022-10-18T15:20:30;5.47;;;1.70;;
13708;SDS011;54933;51.908;7.730;2022-10-18T15:25:49;2.60;;;1.80;;
13708;SDS011;54933;51.908;7.730;2022-10-18T15:29:01;2.10;;;1.73;;
13708;SDS011;54933;51.908;7.730;2022-10-18T15:36:34;2.43;;;1.30;;
13708;SDS011;54933;51.908;7.730;2022-10-18T15:39:04;1.77;;;1.20;;
13708;SDS011;54933;51.908;7.730;2022-10-18T15:41:38;5.10;;;1.40;;
13708;SDS011;54933;51.908;7.730;2022-10-18T15:54:34;3.13;;;1.57;;
13708;SDS011;54933;51.908;7.730;2022-10-18T15:57:06;3.43;;;1.20;;
13708;SDS011;54933;51.908;7.730;2022-10-18T15:59:33;4.00;;;1.23;;
13708;SDS011;54933;51.908;7.730;2022-10-18T16:01:58;1.23;;;1.13;;
13708;SDS011;54933;51.908;7.730;2022-10-18T16:04:24;2.17;;;1.33;;
13708;SDS011;54933;51.908;7.730;2022-10-18T16:06:51;2.60;;;1.33;;
13708;SDS011;54933;51.908;7.730;2022-10-18T16:09:20;1.23;;;1.17;;
13708;SDS011;54933;51.908;7.730;2022-10-18T16:11:46;2.23;;;1.33;;
13708;SDS011;54933;51.908;7.730;2022-10-18T16:14:14;2.37;;;1.03;;
13708;SDS011;54933;51.908;7.730;2022-10-18T16:16:39;3.07;;;1.33;;
13708;SDS011;54933;51.908;7.730;2022-10-18T16:19:05;2.60;;;1.17;;
13708;SDS011;54933;51.908;7.730;2022-10-18T16:21:32;0.90;;;0.90;;
13708;SDS011;54933;51.908;7.730;2022-10-18T16:24:00;2.03;;;1.27;;
13708;SDS011;54933;51.908;7.730;2022-10-18T16:26:25;3.53;;;1.40;;
13708;SDS011;54933;51.908;7.730;2022-10-18T16:28:52;2.00;;;1.30;;
13708;SDS011;54933;51.908;7.730;2022-10-18T16:31:19;1.60;;;1.50;;
13708;SDS011;54933;51.908;7.730;2022-10-18T16:33:47;1.80;;;1.07;;
13708;SDS011;54933;51.908;7.730;2022-10-18T16:36:14;1.70;;;1.30;;
13708;SDS011;54933;51.908;7.730;2022-10-18T16:38:41;1.57;;;1.10;;
13708;SDS011;54933;51.908;7.730;2022-10-18T16:41:07;5.70;;;1.40;;
13708;SDS011;54933;51.908;7.730;2022-10-18T16:43:33;1.97;;;1.27;;
13708;SDS011;54933;51.908;7.730;2022-10-18T16:45:59;6.00;;;1.23;;
13708;SDS011;54933;51.908;7.730;2022-10-18T16:48:25;0.80;;;0.80;;
13708;SDS011;54933;51.908;7.730;2022-10-18T16:50:52;3.53;;;1.80;;
13708;SDS011;54933;51.908;7.730;2022-10-18T16:53:18;2.60;;;1.17;;
13708;SDS011;54933;51.908;7.730;2022-10-18T16:55:49;3.67;;;1.07;;
13708;SDS011;54933;51.908;7.730;2022-10-18T16:58:16;0.83;;;0.83;;
13708;SDS011;54933;51.908;7.730;2022-10-18T17:00:41;3.13;;;1.10;;
13708;SDS011;54933;51.908;7.730;2022-10-18T17:03:07;1.53;;;1.07;;
13708;SDS011;54933;51.908;7.730;2022-10-18T17:05:33;3.43;;;1.50;;
13708;SDS011;54933;51.908;7.730;2022-10-18T17:07:58;3.00;;;1.10;;
13708;SDS011;54933;51.908;7.730;2022-10-18T17:10:23;5.83;;;1.23;;
13708;SDS011;54933;51.908;7.730;2022-10-18T17:12:50;4.07;;;1.10;;
13708;SDS011;54933;51.908;7.730;2022-10-18T17:15:16;2.63;;;1.00;;
13708;SDS011;54933;51.908;7.730;2022-10-18T17:17:41;1.33;;;0.87;;
13708;SDS011;54933;51.908;7.730;2022-10-18T17:20:07;3.87;;;0.97;;
13708;SDS011;54933;51.908;7.730;2022-10-18T17:22:33;4.17;;;1.07;;